sensor_id;sensor_type;location;lat;lon;timestamp;P1;durP1;ratioP1;P2;durP2;ratioP2
73980;SDS011;62348;51.412;5.436;2022-09-01T00:02:16;4.50;;;1.20;;
73980;SDS011;62348;51.412;5.436;2022-09-01T00:04:43;3.13;;;1.45;;
73980;SDS011;62348;51.412;5.436;2022-09-01T00:07:09;3.05;;;1.40;;
73980;SDS011;62348;51.412;5.436;2022-09-01T00:09:36;2.30;;;1.15;;
73980;SDS011;62348;51.412;5.436;2022-09-01T00:12:04;2.45;;;1.17;;
73980;SDS011;62348;51.412;5.436;2022-09-01T00:14:32;2.33;;;1.42;;
73980;SDS011;62348;51.412;5.436;2022-09-01T00:17:00;3.90;;;1.20;;
73980;SDS011;62348;51.412;5.436;2022-09-01T00:19:28;5.72;;;1.55;;
73980;SDS011;62348;51.412;5.436;2022-09-01T00:21:54;4.20;;;1.85;;
73980;SDS011;62348;51.412;5.436;2022-09-01T00:24:20;2.72;;;1.20;;
73980;SDS011;62348;51.412;5.436;2022-09-01T00:26:46;1.63;;;1.27;;
73980;SDS011;62348;51.412;5.436;2022-09-01T00:29:12;4.75;;;1.35;;
73980;SDS011;62348;51.412;5.436;2022-09-01T00:31:38;2.25;;;1.20;;
73980;SDS011;62348;51.412;5.436;2022-09-01T00:34:04;3.70;;;1.15;;
73980;SDS011;62348;51.412;5.436;2022-09-01T00:36:30;7.47;;;1.80;;
73980;SDS011;62348;51.412;5.436;2022-09-01T00:38:55;2.30;;;1.33;;
73980;SDS011;62348;51.412;5.436;2022-09-01T00:41:23;2.75;;;1.38;;
73980;SDS011;62348;51.412;5.436;2022-09-01T00:43:52;2.28;;;1.17;;
73980;SDS011;62348;51.412;5.436;2022-09-01T00:46:20;7.20;;;1.40;;
73980;SDS011;62348;51.412;5.436;2022-09-01T00:48:46;6.13;;;1.58;;
73980;SDS011;62348;51.412;5.436;2022-09-01T00:51:17;3.92;;;1.20;;
73980;SDS011;62348;51.412;5.436;2022-09-01T00:53:42;6.55;;;1.17;;
73980;SDS011;62348;51.412;5.436;2022-09-01T00:56:10;5.38;;;1.45;;
73980;SDS011;62348;51.412;5.436;2022-09-01T00:58:37;4.07;;;1.35;;
73980;SDS011;62348;51.412;5.436;2022-09-01T01:01:04;2.17;;;1.45;;
73980;SDS011;62348;51.412;5.436;2022-09-01T01:03:34;2.95;;;1.65;;
73980;SDS011;62348;51.412;5.436;2022-09-01T01:06:02;3.53;;;1.30;;
73980;SDS011;62348;51.412;5.436;2022-09-01T01:08:32;1.60;;;1.35;;
73980;SDS011;62348;51.412;5.436;2022-09-01T01:11:04;3.97;;;1.20;;
73980;SDS011;62348;51.412;5.436;2022-09-01T01:13:45;1.55;;;1.30;;
73980;SDS011;62348;51.412;5.436;2022-09-01T01:16:17;2.57;;;1.27;;
73980;SDS011;62348;51.412;5.436;2022-09-01T01:18:42;1.00;;;0.90;;
73980;SDS011;62348;51.412;5.436;2022-09-01T01:21:10;1.80;;;1.27;;
73980;SDS011;62348;51.412;5.436;2022-09-01T01:24:25;4.32;;;1.48;;
73980;SDS011;62348;51.412;5.436;2022-09-01T01:26:52;1.77;;;1.20;;
73980;SDS011;62348;51.412;5.436;2022-09-01T01:29:21;2.08;;;1.15;;
73980;SDS011;62348;51.412;5.436;2022-09-01T01:31:48;3.33;;;1.58;;
73980;SDS011;62348;51.412;5.436;2022-09-01T01:34:16;3.80;;;1.95;;
73980;SDS011;62348;51.412;5.436;2022-09-01T01:36:43;1.73;;;1.15;;
73980;SDS011;62348;51.412;5.436;2022-09-01T01:39:14;3.55;;;1.20;;
73980;SDS011;62348;51.412;5.436;2022-09-01T01:41:44;3.95;;;1.23;;
73980;SDS011;62348;51.412;5.436;2022-09-01T01:44:13;2.10;;;1.00;;
73980;SDS011;62348;51.412;5.436;2022-09-01T01:46:42;3.38;;;1.30;;
73980;SDS011;62348;51.412;5.436;2022-09-01T01:49:11;3.33;;;1.42;;
73980;SDS011;62348;51.412;5.436;2022-09-01T01:51:42;2.55;;;1.30;;
73980;SDS011;62348;51.412;5.436;2022-09-01T01:54:09;2.38;;;1.15;;
73980;SDS011;62348;51.412;5.436;2022-09-01T01:56:34;2.22;;;1.10;;
73980;SDS011;62348;51.412;5.436;2022-09-01T01:59:06;1.88;;;1.05;;
73980;SDS011;62348;51.412;5.436;2022-09-01T02:01:33;2.92;;;1.48;;
73980;SDS011;62348;51.412;5.436;2022-09-01T02:04:00;6.50;;;1.60;;
73980;SDS011;62348;51.412;5.436;2022-09-01T02:06:29;1.60;;;1.15;;
73980;SDS011;62348;51.412;5.436;2022-09-01T02:08:58;3.40;;;1.23;;
73980;SDS011;62348;51.412;5.436;2022-09-01T02:11:27;2.78;;;1.20;;
73980;SDS011;62348;51.412;5.436;2022-09-01T02:13:57;2.72;;;1.30;;
73980;SDS011;62348;51.412;5.436;2022-09-01T02:16:24;2.90;;;1.10;;
73980;SDS011;62348;51.412;5.436;2022-09-01T02:18:51;3.58;;;1.50;;
73980;SDS011;62348;51.412;5.436;2022-09-01T02:21:18;3.65;;;1.10;;
73980;SDS011;62348;51.412;5.436;2022-09-01T02:23:47;2.33;;;1.20;;
73980;SDS011;62348;51.412;5.436;2022-09-01T02:26:26;2.38;;;1.27;;
73980;SDS011;62348;51.412;5.436;2022-09-01T02:28:57;2.30;;;1.20;;
73980;SDS011;62348;51.412;5.436;2022-09-01T02:31:27;1.67;;;1.00;;
73980;SDS011;62348;51.412;5.436;2022-09-01T02:33:52;3.08;;;1.20;;
73980;SDS011;62348;51.412;5.436;2022-09-01T02:36:19;4.35;;;1.20;;
73980;SDS011;62348;51.412;5.436;2022-09-01T02:38:46;2.88;;;1.27;;
73980;SDS011;62348;51.412;5.436;2022-09-01T02:41:13;3.83;;;1.20;;
73980;SDS011;62348;51.412;5.436;2022-09-01T02:43:40;2.13;;;1.42;;
73980;SDS011;62348;51.412;5.436;2022-09-01T02:46:10;5.25;;;1.73;;
73980;SDS011;62348;51.412;5.436;2022-09-01T02:48:37;3.75;;;1.20;;
73980;SDS011;62348;51.412;5.436;2022-09-01T02:51:10;1.67;;;1.38;;
73980;SDS011;62348;51.412;5.436;2022-09-01T02:53:43;1.45;;;0.88;;
73980;SDS011;62348;51.412;5.436;2022-09-01T02:56:14;2.72;;;1.20;;
73980;SDS011;62348;51.412;5.436;2022-09-01T02:58:40;2.03;;;1.23;;
73980;SDS011;62348;51.412;5.436;2022-09-01T03:01:12;1.30;;;1.10;;
73980;SDS011;62348;51.412;5.436;2022-09-01T03:06:08;4.18;;;1.38;;
73980;SDS011;62348;51.412;5.436;2022-09-01T03:08:34;4.10;;;1.38;;
73980;SDS011;62348;51.412;5.436;2022-09-01T03:11:03;1.40;;;1.13;;
73980;SDS011;62348;51.412;5.436;2022-09-01T03:13:31;5.63;;;1.70;;
73980;SDS011;62348;51.412;5.436;2022-09-01T03:15:57;4.32;;;1.63;;
73980;SDS011;62348;51.412;5.436;2022-09-01T03:18:22;3.50;;;2.08;;
73980;SDS011;62348;51.412;5.436;2022-09-01T03:20:48;3.97;;;1.88;;
73980;SDS011;62348;51.412;5.436;2022-09-01T03:23:15;6.70;;;2.35;;
73980;SDS011;62348;51.412;5.436;2022-09-01T03:25:42;3.05;;;1.83;;
73980;SDS011;62348;51.412;5.436;2022-09-01T03:28:09;4.35;;;1.50;;
73980;SDS011;62348;51.412;5.436;2022-09-01T03:30:37;3.00;;;1.45;;
73980;SDS011;62348;51.412;5.436;2022-09-01T03:33:05;4.00;;;1.58;;
73980;SDS011;62348;51.412;5.436;2022-09-01T03:35:31;2.25;;;1.33;;
73980;SDS011;62348;51.412;5.436;2022-09-01T03:37:58;3.75;;;1.45;;
73980;SDS011;62348;51.412;5.436;2022-09-01T03:40:26;4.68;;;1.30;;
73980;SDS011;62348;51.412;5.436;2022-09-01T03:42:57;6.80;;;1.42;;
73980;SDS011;62348;51.412;5.436;2022-09-01T03:45:22;3.75;;;1.33;;
73980;SDS011;62348;51.412;5.436;2022-09-01T03:47:49;4.00;;;1.13;;
73980;SDS011;62348;51.412;5.436;2022-09-01T03:50:17;3.83;;;1.30;;
73980;SDS011;62348;51.412;5.436;2022-09-01T03:52:48;2.83;;;1.17;;
73980;SDS011;62348;51.412;5.436;2022-09-01T03:55:19;1.55;;;1.33;;
73980;SDS011;62348;51.412;5.436;2022-09-01T03:57:50;1.70;;;1.35;;
73980;SDS011;62348;51.412;5.436;2022-09-01T04:02:51;1.85;;;1.10;;
73980;SDS011;62348;51.412;5.436;2022-09-01T04:05:20;3.40;;;1.20;;
73980;SDS011;62348;51.412;5.436;2022-09-01T04:07:46;1.88;;;1.33;;
73980;SDS011;62348;51.412;5.436;2022-09-01T04:10:13;3.72;;;1.67;;
73980;SDS011;62348;51.412;5.436;2022-09-01T04:12:39;3.15;;;1.60;;
73980;SDS011;62348;51.412;5.436;2022-09-01T04:15:05;2.92;;;1.63;;
73980;SDS011;62348;51.412;5.436;2022-09-01T04:17:32;5.28;;;1.50;;
73980;SDS011;62348;51.412;5.436;2022-09-01T04:20:17;1.98;;;1.23;;
73980;SDS011;62348;51.412;5.436;2022-09-01T04:22:45;2.28;;;1.33;;
73980;SDS011;62348;51.412;5.436;2022-09-01T04:25:12;3.53;;;1.58;;
73980;SDS011;62348;51.412;5.436;2022-09-01T04:27:38;4.28;;;1.88;;
73980;SDS011;62348;51.412;5.436;2022-09-01T04:30:05;2.50;;;1.45;;
73980;SDS011;62348;51.412;5.436;2022-09-01T04:32:36;2.55;;;1.48;;
73980;SDS011;62348;51.412;5.436;2022-09-01T04:35:03;3.08;;;1.80;;
73980;SDS011;62348;51.412;5.436;2022-09-01T04:37:29;3.10;;;1.77;;
73980;SDS011;62348;51.412;5.436;2022-09-01T04:39:55;1.92;;;1.55;;
73980;SDS011;62348;51.412;5.436;2022-09-01T04:42:22;2.70;;;1.75;;
73980;SDS011;62348;51.412;5.436;2022-09-01T04:44:49;2.67;;;1.83;;
73980;SDS011;62348;51.412;5.436;2022-09-01T04:47:18;3.58;;;1.92;;
73980;SDS011;62348;51.412;5.436;2022-09-01T04:49:54;2.90;;;1.52;;
73980;SDS011;62348;51.412;5.436;2022-09-01T04:52:22;4.70;;;2.25;;
73980;SDS011;62348;51.412;5.436;2022-09-01T04:54:48;4.30;;;1.65;;
73980;SDS011;62348;51.412;5.436;2022-09-01T04:57:14;3.50;;;2.05;;
73980;SDS011;62348;51.412;5.436;2022-09-01T04:59:41;3.88;;;2.03;;
73980;SDS011;62348;51.412;5.436;2022-09-01T05:02:07;3.47;;;2.00;;
73980;SDS011;62348;51.412;5.436;2022-09-01T05:04:34;4.22;;;1.77;;
73980;SDS011;62348;51.412;5.436;2022-09-01T05:07:00;4.78;;;1.80;;
73980;SDS011;62348;51.412;5.436;2022-09-01T05:09:28;4.28;;;1.88;;
73980;SDS011;62348;51.412;5.436;2022-09-01T05:11:55;3.92;;;1.73;;
73980;SDS011;62348;51.412;5.436;2022-09-01T05:14:22;5.90;;;1.88;;
73980;SDS011;62348;51.412;5.436;2022-09-01T05:16:49;3.50;;;1.95;;
73980;SDS011;62348;51.412;5.436;2022-09-01T05:19:15;3.60;;;2.13;;
73980;SDS011;62348;51.412;5.436;2022-09-01T05:21:42;4.88;;;2.28;;
73980;SDS011;62348;51.412;5.436;2022-09-01T05:24:13;6.70;;;2.15;;
73980;SDS011;62348;51.412;5.436;2022-09-01T05:26:41;4.18;;;2.20;;
73980;SDS011;62348;51.412;5.436;2022-09-01T05:29:08;3.60;;;1.75;;
73980;SDS011;62348;51.412;5.436;2022-09-01T05:31:40;3.27;;;2.17;;
73980;SDS011;62348;51.412;5.436;2022-09-01T05:34:07;4.53;;;2.17;;
73980;SDS011;62348;51.412;5.436;2022-09-01T05:36:37;5.38;;;1.75;;
73980;SDS011;62348;51.412;5.436;2022-09-01T05:39:06;6.35;;;2.42;;
73980;SDS011;62348;51.412;5.436;2022-09-01T05:41:33;4.38;;;1.95;;
73980;SDS011;62348;51.412;5.436;2022-09-01T05:44:00;3.75;;;1.98;;
73980;SDS011;62348;51.412;5.436;2022-09-01T05:46:27;4.32;;;2.05;;
73980;SDS011;62348;51.412;5.436;2022-09-01T05:48:53;6.38;;;2.33;;
73980;SDS011;62348;51.412;5.436;2022-09-01T05:51:22;4.22;;;2.17;;
73980;SDS011;62348;51.412;5.436;2022-09-01T05:53:54;6.07;;;2.60;;
73980;SDS011;62348;51.412;5.436;2022-09-01T05:56:23;4.75;;;2.47;;
73980;SDS011;62348;51.412;5.436;2022-09-01T05:58:50;6.05;;;2.50;;
73980;SDS011;62348;51.412;5.436;2022-09-01T06:01:17;5.13;;;2.42;;
73980;SDS011;62348;51.412;5.436;2022-09-01T06:03:46;3.95;;;2.20;;
73980;SDS011;62348;51.412;5.436;2022-09-01T06:06:13;4.40;;;2.50;;
73980;SDS011;62348;51.412;5.436;2022-09-01T06:08:39;4.72;;;2.55;;
73980;SDS011;62348;51.412;5.436;2022-09-01T06:11:07;5.60;;;2.65;;
73980;SDS011;62348;51.412;5.436;2022-09-01T06:13:39;6.20;;;3.10;;
73980;SDS011;62348;51.412;5.436;2022-09-01T06:16:09;9.15;;;2.78;;
73980;SDS011;62348;51.412;5.436;2022-09-01T06:18:36;8.90;;;3.10;;
73980;SDS011;62348;51.412;5.436;2022-09-01T06:21:03;6.47;;;3.35;;
73980;SDS011;62348;51.412;5.436;2022-09-01T06:23:29;7.07;;;3.75;;
73980;SDS011;62348;51.412;5.436;2022-09-01T06:25:56;8.88;;;3.92;;
73980;SDS011;62348;51.412;5.436;2022-09-01T06:28:23;6.00;;;3.63;;
73980;SDS011;62348;51.412;5.436;2022-09-01T06:30:49;8.00;;;4.25;;
73980;SDS011;62348;51.412;5.436;2022-09-01T06:33:15;10.13;;;4.60;;
73980;SDS011;62348;51.412;5.436;2022-09-01T06:35:42;8.60;;;4.53;;
73980;SDS011;62348;51.412;5.436;2022-09-01T06:38:11;12.30;;;5.70;;
73980;SDS011;62348;51.412;5.436;2022-09-01T06:40:38;15.93;;;7.80;;
73980;SDS011;62348;51.412;5.436;2022-09-01T06:43:05;15.73;;;7.80;;
73980;SDS011;62348;51.412;5.436;2022-09-01T06:45:32;12.90;;;7.03;;
73980;SDS011;62348;51.412;5.436;2022-09-01T06:48:04;16.27;;;7.03;;
73980;SDS011;62348;51.412;5.436;2022-09-01T06:50:30;15.18;;;6.28;;
73980;SDS011;62348;51.412;5.436;2022-09-01T06:52:55;12.43;;;6.43;;
73980;SDS011;62348;51.412;5.436;2022-09-01T06:55:35;16.95;;;6.10;;
73980;SDS011;62348;51.412;5.436;2022-09-01T06:58:02;10.65;;;5.50;;
73980;SDS011;62348;51.412;5.436;2022-09-01T07:00:31;10.85;;;6.03;;
73980;SDS011;62348;51.412;5.436;2022-09-01T07:03:05;12.93;;;6.22;;
73980;SDS011;62348;51.412;5.436;2022-09-01T07:05:38;10.77;;;6.03;;
73980;SDS011;62348;51.412;5.436;2022-09-01T07:08:05;12.25;;;6.38;;
73980;SDS011;62348;51.412;5.436;2022-09-01T07:10:38;12.70;;;7.05;;
73980;SDS011;62348;51.412;5.436;2022-09-01T07:13:09;18.42;;;8.20;;
73980;SDS011;62348;51.412;5.436;2022-09-01T07:15:39;16.95;;;9.75;;
73980;SDS011;62348;51.412;5.436;2022-09-01T07:18:05;16.00;;;8.73;;
73980;SDS011;62348;51.412;5.436;2022-09-01T07:20:30;16.27;;;8.88;;
73980;SDS011;62348;51.412;5.436;2022-09-01T07:25:29;15.38;;;8.73;;
73980;SDS011;62348;51.412;5.436;2022-09-01T07:27:56;14.23;;;7.95;;
73980;SDS011;62348;51.412;5.436;2022-09-01T07:30:23;14.77;;;7.78;;
73980;SDS011;62348;51.412;5.436;2022-09-01T07:32:50;20.77;;;9.98;;
73980;SDS011;62348;51.412;5.436;2022-09-01T07:35:19;9.88;;;6.90;;
73980;SDS011;62348;51.412;5.436;2022-09-01T07:37:46;12.68;;;5.65;;
73980;SDS011;62348;51.412;5.436;2022-09-01T07:40:14;10.65;;;5.35;;
73980;SDS011;62348;51.412;5.436;2022-09-01T07:42:43;13.85;;;6.07;;
73980;SDS011;62348;51.412;5.436;2022-09-01T07:45:10;11.07;;;5.30;;
73980;SDS011;62348;51.412;5.436;2022-09-01T07:47:37;13.50;;;6.15;;
73980;SDS011;62348;51.412;5.436;2022-09-01T07:50:03;12.18;;;5.82;;
73980;SDS011;62348;51.412;5.436;2022-09-01T07:52:36;11.05;;;5.95;;
73980;SDS011;62348;51.412;5.436;2022-09-01T07:55:11;15.18;;;7.18;;
73980;SDS011;62348;51.412;5.436;2022-09-01T07:57:39;16.17;;;7.15;;
73980;SDS011;62348;51.412;5.436;2022-09-01T08:00:07;16.83;;;7.68;;
73980;SDS011;62348;51.412;5.436;2022-09-01T08:02:35;15.05;;;7.97;;
73980;SDS011;62348;51.412;5.436;2022-09-01T08:05:03;13.20;;;8.07;;
73980;SDS011;62348;51.412;5.436;2022-09-01T08:07:33;13.70;;;7.30;;
73980;SDS011;62348;51.412;5.436;2022-09-01T08:10:00;13.00;;;7.38;;
73980;SDS011;62348;51.412;5.436;2022-09-01T08:12:26;11.05;;;7.15;;
73980;SDS011;62348;51.412;5.436;2022-09-01T08:14:51;10.23;;;6.65;;
73980;SDS011;62348;51.412;5.436;2022-09-01T08:17:17;15.98;;;6.50;;
73980;SDS011;62348;51.412;5.436;2022-09-01T08:19:43;12.45;;;5.95;;
73980;SDS011;62348;51.412;5.436;2022-09-01T08:22:10;11.93;;;5.95;;
73980;SDS011;62348;51.412;5.436;2022-09-01T08:24:37;15.20;;;6.10;;
73980;SDS011;62348;51.412;5.436;2022-09-01T08:27:02;15.02;;;6.65;;
73980;SDS011;62348;51.412;5.436;2022-09-01T08:29:28;16.45;;;8.27;;
73980;SDS011;62348;51.412;5.436;2022-09-01T08:31:54;16.63;;;8.77;;
73980;SDS011;62348;51.412;5.436;2022-09-01T08:34:19;18.00;;;10.05;;
73980;SDS011;62348;51.412;5.436;2022-09-01T08:36:45;18.23;;;10.63;;
73980;SDS011;62348;51.412;5.436;2022-09-01T08:39:10;21.02;;;10.68;;
73980;SDS011;62348;51.412;5.436;2022-09-01T08:41:43;29.35;;;15.75;;
73980;SDS011;62348;51.412;5.436;2022-09-01T08:44:26;33.22;;;19.15;;
73980;SDS011;62348;51.412;5.436;2022-09-01T08:47:06;32.65;;;19.25;;
73980;SDS011;62348;51.412;5.436;2022-09-01T08:49:33;38.95;;;21.38;;
73980;SDS011;62348;51.412;5.436;2022-09-01T08:52:16;33.20;;;22.02;;
73980;SDS011;62348;51.412;5.436;2022-09-01T08:54:59;40.05;;;22.45;;
73980;SDS011;62348;51.412;5.436;2022-09-01T08:59:56;36.33;;;22.85;;
73980;SDS011;62348;51.412;5.436;2022-09-01T09:02:30;36.58;;;22.73;;
73980;SDS011;62348;51.412;5.436;2022-09-01T09:10:20;29.45;;;17.70;;
73980;SDS011;62348;51.412;5.436;2022-09-01T09:18:36;24.38;;;16.80;;
73980;SDS011;62348;51.412;5.436;2022-09-01T09:21:15;29.85;;;18.50;;
73980;SDS011;62348;51.412;5.436;2022-09-01T09:23:45;32.67;;;18.48;;
73980;SDS011;62348;51.412;5.436;2022-09-01T09:26:14;27.98;;;16.67;;
73980;SDS011;62348;51.412;5.436;2022-09-01T09:28:42;25.02;;;13.05;;
73980;SDS011;62348;51.412;5.436;2022-09-01T09:31:26;21.45;;;12.60;;
73980;SDS011;62348;51.412;5.436;2022-09-01T09:33:57;17.35;;;10.23;;
73980;SDS011;62348;51.412;5.436;2022-09-01T09:36:31;14.73;;;9.20;;
73980;SDS011;62348;51.412;5.436;2022-09-01T09:39:10;13.18;;;8.73;;
73980;SDS011;62348;51.412;5.436;2022-09-01T09:41:38;16.85;;;8.80;;
73980;SDS011;62348;51.412;5.436;2022-09-01T09:46:55;16.75;;;9.13;;
73980;SDS011;62348;51.412;5.436;2022-09-01T09:51:57;10.93;;;5.53;;
73980;SDS011;62348;51.412;5.436;2022-09-01T09:54:56;9.90;;;5.78;;
73980;SDS011;62348;51.412;5.436;2022-09-01T09:57:24;13.27;;;6.32;;
73980;SDS011;62348;51.412;5.436;2022-09-01T10:05:01;19.42;;;9.15;;
73980;SDS011;62348;51.412;5.436;2022-09-01T10:08:03;10.52;;;7.10;;
73980;SDS011;62348;51.412;5.436;2022-09-01T10:13:21;13.43;;;5.97;;
73980;SDS011;62348;51.412;5.436;2022-09-01T10:15:52;7.55;;;5.13;;
73980;SDS011;62348;51.412;5.436;2022-09-01T10:18:33;10.45;;;6.22;;
73980;SDS011;62348;51.412;5.436;2022-09-01T10:21:11;10.55;;;6.35;;
73980;SDS011;62348;51.412;5.436;2022-09-01T10:23:39;11.55;;;5.00;;
73980;SDS011;62348;51.412;5.436;2022-09-01T10:28:31;6.60;;;3.60;;
73980;SDS011;62348;51.412;5.436;2022-09-01T10:30:57;14.35;;;6.32;;
73980;SDS011;62348;51.412;5.436;2022-09-01T10:33:24;9.57;;;6.00;;
73980;SDS011;62348;51.412;5.436;2022-09-01T10:35:50;7.03;;;3.65;;
73980;SDS011;62348;51.412;5.436;2022-09-01T10:38:18;8.95;;;5.10;;
73980;SDS011;62348;51.412;5.436;2022-09-01T10:40:47;12.48;;;6.00;;
73980;SDS011;62348;51.412;5.436;2022-09-01T10:46:09;11.93;;;6.53;;
73980;SDS011;62348;51.412;5.436;2022-09-01T10:53:37;9.07;;;5.70;;
73980;SDS011;62348;51.412;5.436;2022-09-01T10:56:08;11.93;;;7.90;;
73980;SDS011;62348;51.412;5.436;2022-09-01T11:04:10;7.38;;;4.63;;
73980;SDS011;62348;51.412;5.436;2022-09-01T11:06:43;6.25;;;2.63;;
73980;SDS011;62348;51.412;5.436;2022-09-01T11:14:16;6.80;;;5.05;;
73980;SDS011;62348;51.412;5.436;2022-09-01T11:16:43;6.53;;;4.75;;
73980;SDS011;62348;51.412;5.436;2022-09-01T11:19:37;9.70;;;5.82;;
73980;SDS011;62348;51.412;5.436;2022-09-01T11:22:08;13.30;;;7.30;;
73980;SDS011;62348;51.412;5.436;2022-09-01T11:30:32;10.80;;;5.47;;
73980;SDS011;62348;51.412;5.436;2022-09-01T11:35:57;8.98;;;5.65;;
73980;SDS011;62348;51.412;5.436;2022-09-01T11:38:26;12.35;;;4.18;;
73980;SDS011;62348;51.412;5.436;2022-09-01T11:40:56;5.22;;;2.90;;
73980;SDS011;62348;51.412;5.436;2022-09-01T11:43:21;6.95;;;2.50;;
73980;SDS011;62348;51.412;5.436;2022-09-01T11:48:50;5.53;;;2.10;;
73980;SDS011;62348;51.412;5.436;2022-09-01T11:51:17;3.50;;;1.50;;
73980;SDS011;62348;51.412;5.436;2022-09-01T11:53:42;2.28;;;1.27;;
73980;SDS011;62348;51.412;5.436;2022-09-01T11:56:13;2.80;;;1.70;;
73980;SDS011;62348;51.412;5.436;2022-09-01T11:58:49;3.58;;;2.55;;
73980;SDS011;62348;51.412;5.436;2022-09-01T12:03:40;6.55;;;2.38;;
73980;SDS011;62348;51.412;5.436;2022-09-01T12:06:07;8.02;;;2.80;;
73980;SDS011;62348;51.412;5.436;2022-09-01T12:08:39;6.13;;;2.78;;
73980;SDS011;62348;51.412;5.436;2022-09-01T12:11:08;3.87;;;1.30;;
73980;SDS011;62348;51.412;5.436;2022-09-01T12:13:36;3.75;;;0.90;;
73980;SDS011;62348;51.412;5.436;2022-09-01T12:16:04;5.07;;;1.25;;
73980;SDS011;62348;51.412;5.436;2022-09-01T12:18:31;2.08;;;0.93;;
73980;SDS011;62348;51.412;5.436;2022-09-01T12:21:00;5.07;;;2.30;;
73980;SDS011;62348;51.412;5.436;2022-09-01T12:25:57;4.95;;;2.70;;
73980;SDS011;62348;51.412;5.436;2022-09-01T12:28:26;6.75;;;2.72;;
73980;SDS011;62348;51.412;5.436;2022-09-01T12:30:55;3.28;;;1.10;;
73980;SDS011;62348;51.412;5.436;2022-09-01T12:33:22;4.07;;;2.00;;
73980;SDS011;62348;51.412;5.436;2022-09-01T12:35:48;3.63;;;1.55;;
73980;SDS011;62348;51.412;5.436;2022-09-01T12:40:42;2.33;;;1.45;;
73980;SDS011;62348;51.412;5.436;2022-09-01T12:43:09;7.18;;;1.92;;
73980;SDS011;62348;51.412;5.436;2022-09-01T12:45:45;5.85;;;1.90;;
73980;SDS011;62348;51.412;5.436;2022-09-01T12:50:54;4.75;;;2.58;;
73980;SDS011;62348;51.412;5.436;2022-09-01T12:53:23;3.17;;;1.90;;
73980;SDS011;62348;51.412;5.436;2022-09-01T12:55:56;2.55;;;1.75;;
73980;SDS011;62348;51.412;5.436;2022-09-01T12:58:26;3.20;;;1.40;;
73980;SDS011;62348;51.412;5.436;2022-09-01T13:01:01;2.67;;;1.20;;
73980;SDS011;62348;51.412;5.436;2022-09-01T13:03:32;2.05;;;0.90;;
73980;SDS011;62348;51.412;5.436;2022-09-01T13:05:59;3.70;;;1.00;;
73980;SDS011;62348;51.412;5.436;2022-09-01T13:08:27;3.88;;;1.10;;
73980;SDS011;62348;51.412;5.436;2022-09-01T13:11:02;2.08;;;0.93;;
73980;SDS011;62348;51.412;5.436;2022-09-01T13:13:32;4.68;;;1.23;;
73980;SDS011;62348;51.412;5.436;2022-09-01T13:15:59;1.50;;;0.80;;
73980;SDS011;62348;51.412;5.436;2022-09-01T13:18:28;8.05;;;6.13;;
73980;SDS011;62348;51.412;5.436;2022-09-01T13:20:54;7.72;;;5.50;;
73980;SDS011;62348;51.412;5.436;2022-09-01T13:23:21;6.63;;;3.90;;
73980;SDS011;62348;51.412;5.436;2022-09-01T13:25:47;4.93;;;3.17;;
73980;SDS011;62348;51.412;5.436;2022-09-01T13:28:13;6.13;;;3.00;;
73980;SDS011;62348;51.412;5.436;2022-09-01T13:30:40;7.18;;;3.58;;
73980;SDS011;62348;51.412;5.436;2022-09-01T13:33:08;6.50;;;2.90;;
73980;SDS011;62348;51.412;5.436;2022-09-01T13:35:36;3.35;;;1.67;;
73980;SDS011;62348;51.412;5.436;2022-09-01T13:38:02;3.92;;;1.60;;
73980;SDS011;62348;51.412;5.436;2022-09-01T13:40:27;3.08;;;1.30;;
73980;SDS011;62348;51.412;5.436;2022-09-01T13:42:53;3.67;;;2.30;;
73980;SDS011;62348;51.412;5.436;2022-09-01T13:45:20;3.67;;;2.15;;
73980;SDS011;62348;51.412;5.436;2022-09-01T13:47:48;6.50;;;3.80;;
73980;SDS011;62348;51.412;5.436;2022-09-01T13:50:15;6.35;;;4.05;;
73980;SDS011;62348;51.412;5.436;2022-09-01T13:52:44;10.60;;;5.65;;
73980;SDS011;62348;51.412;5.436;2022-09-01T13:55:13;7.75;;;5.03;;
73980;SDS011;62348;51.412;5.436;2022-09-01T13:57:49;7.72;;;5.07;;
73980;SDS011;62348;51.412;5.436;2022-09-01T14:00:16;7.00;;;4.72;;
73980;SDS011;62348;51.412;5.436;2022-09-01T14:02:45;9.15;;;5.28;;
73980;SDS011;62348;51.412;5.436;2022-09-01T14:05:27;8.60;;;4.85;;
73980;SDS011;62348;51.412;5.436;2022-09-01T14:07:54;12.20;;;5.68;;
73980;SDS011;62348;51.412;5.436;2022-09-01T14:10:20;11.98;;;6.20;;
73980;SDS011;62348;51.412;5.436;2022-09-01T14:12:47;12.02;;;6.50;;
73980;SDS011;62348;51.412;5.436;2022-09-01T14:15:14;11.88;;;6.47;;
73980;SDS011;62348;51.412;5.436;2022-09-01T14:17:41;11.68;;;5.72;;
73980;SDS011;62348;51.412;5.436;2022-09-01T14:20:07;10.73;;;5.68;;
73980;SDS011;62348;51.412;5.436;2022-09-01T14:22:37;11.07;;;5.18;;
73980;SDS011;62348;51.412;5.436;2022-09-01T14:25:04;5.68;;;3.45;;
73980;SDS011;62348;51.412;5.436;2022-09-01T14:27:30;6.35;;;3.13;;
73980;SDS011;62348;51.412;5.436;2022-09-01T14:29:55;6.85;;;3.00;;
73980;SDS011;62348;51.412;5.436;2022-09-01T14:32:21;5.97;;;2.58;;
73980;SDS011;62348;51.412;5.436;2022-09-01T14:34:54;6.65;;;3.40;;
73980;SDS011;62348;51.412;5.436;2022-09-01T14:37:20;7.13;;;3.58;;
73980;SDS011;62348;51.412;5.436;2022-09-01T14:39:51;8.25;;;4.55;;
73980;SDS011;62348;51.412;5.436;2022-09-01T14:42:18;12.95;;;4.63;;
73980;SDS011;62348;51.412;5.436;2022-09-01T14:44:45;7.38;;;4.32;;
73980;SDS011;62348;51.412;5.436;2022-09-01T14:47:11;9.82;;;4.80;;
73980;SDS011;62348;51.412;5.436;2022-09-01T14:49:38;10.43;;;4.32;;
73980;SDS011;62348;51.412;5.436;2022-09-01T14:52:04;7.05;;;3.45;;
73980;SDS011;62348;51.412;5.436;2022-09-01T14:54:38;4.28;;;2.30;;
73980;SDS011;62348;51.412;5.436;2022-09-01T14:57:06;5.47;;;2.70;;
73980;SDS011;62348;51.412;5.436;2022-09-01T14:59:32;3.65;;;2.22;;
73980;SDS011;62348;51.412;5.436;2022-09-01T15:01:58;8.82;;;2.83;;
73980;SDS011;62348;51.412;5.436;2022-09-01T15:04:24;7.35;;;3.22;;
73980;SDS011;62348;51.412;5.436;2022-09-01T15:06:50;4.05;;;2.58;;
73980;SDS011;62348;51.412;5.436;2022-09-01T15:09:15;3.20;;;2.05;;
73980;SDS011;62348;51.412;5.436;2022-09-01T15:11:41;2.55;;;1.73;;
73980;SDS011;62348;51.412;5.436;2022-09-01T15:14:07;4.72;;;1.50;;
73980;SDS011;62348;51.412;5.436;2022-09-01T15:16:34;2.47;;;1.80;;
73980;SDS011;62348;51.412;5.436;2022-09-01T15:19:04;2.17;;;1.95;;
73980;SDS011;62348;51.412;5.436;2022-09-01T15:21:32;4.57;;;2.60;;
73980;SDS011;62348;51.412;5.436;2022-09-01T15:23:59;7.57;;;3.13;;
73980;SDS011;62348;51.412;5.436;2022-09-01T15:26:26;10.05;;;3.55;;
73980;SDS011;62348;51.412;5.436;2022-09-01T15:28:52;6.18;;;3.90;;
73980;SDS011;62348;51.412;5.436;2022-09-01T15:31:18;8.55;;;3.83;;
73980;SDS011;62348;51.412;5.436;2022-09-01T15:33:48;7.43;;;4.00;;
73980;SDS011;62348;51.412;5.436;2022-09-01T15:36:17;8.00;;;3.78;;
73980;SDS011;62348;51.412;5.436;2022-09-01T15:38:45;10.10;;;3.70;;
73980;SDS011;62348;51.412;5.436;2022-09-01T15:41:15;9.10;;;4.65;;
73980;SDS011;62348;51.412;5.436;2022-09-01T15:43:45;7.40;;;4.28;;
73980;SDS011;62348;51.412;5.436;2022-09-01T15:46:11;6.88;;;3.90;;
73980;SDS011;62348;51.412;5.436;2022-09-01T15:48:38;6.05;;;3.55;;
73980;SDS011;62348;51.412;5.436;2022-09-01T15:51:26;5.53;;;3.35;;
73980;SDS011;62348;51.412;5.436;2022-09-01T15:53:57;7.38;;;4.18;;
73980;SDS011;62348;51.412;5.436;2022-09-01T15:56:26;6.55;;;3.97;;
73980;SDS011;62348;51.412;5.436;2022-09-01T15:58:51;8.32;;;3.75;;
73980;SDS011;62348;51.412;5.436;2022-09-01T16:01:17;6.30;;;3.55;;
73980;SDS011;62348;51.412;5.436;2022-09-01T16:03:43;5.60;;;3.45;;
73980;SDS011;62348;51.412;5.436;2022-09-01T16:06:09;7.13;;;3.90;;
73980;SDS011;62348;51.412;5.436;2022-09-01T16:08:35;6.07;;;3.67;;
73980;SDS011;62348;51.412;5.436;2022-09-01T16:11:04;7.82;;;3.47;;